Time;durP1;ratioP1;P1;durP2;ratioP2;P2;SDS_P1;SDS_P2;PMS_P1;PMS_P2;Temp;Humidity;BMP_temperature;BMP_pressure;BME280_temperature;BME280_humidity;BME280_pressure;Samples;Min_cycle;Max_cycle;Signal;HPM_P1;HPM_P2
2024/01/11 00:02:03;;;;;;;;;;;;;;;17.58;31.94;101948.97;5074008;28;1031;-44
2024/01/11 00:04:28;;;;;;;;;;;;;;;16.57;33.59;101941.22;5069068;28;1047;-48
2024/01/11 00:06:54;;;;;;;;;;;;;;;16.01;34.62;101942.38;5071367;28;1254;-48
2024/01/11 00:09:20;;;;;;;;;;;;;;;17.13;33.07;101949.72;5063376;28;1202;-46
2024/01/11 00:11:45;;;;;;;;;;;;;;;17.65;31.71;101951.28;5074141;28;1978;-46
2024/01/11 00:14:11;;;;;;;;;;;;;;;16.56;33.82;101945.72;5077995;28;992;-49
2024/01/11 00:16:36;;;;;;;;;;;;;;;16.11;34.48;101942.75;5062183;28;1111;-45
2024/01/11 00:19:02;;;;;;;;;;;;;;;17.28;32.63;101944.50;5068665;28;1120;-44
2024/01/11 00:21:27;;;;;;;;;;;;;;;17.50;32.12;101938.78;5071478;28;2481;-49
2024/01/11 00:23:53;;;;;;;;;;;;;;;16.43;33.98;101934.03;5040158;28;977;-44
2024/01/11 00:26:19;;;;;;;;;;;;;;;16.01;34.62;101934.41;5074980;28;1044;-48
2024/01/11 00:28:44;;;;;;;;;;;;;;;17.24;32.81;101932.31;5077503;28;1031;-44
2024/01/11 00:31:10;;;;;;;;;;;;;;;17.92;31.38;101924.84;5077523;28;1901;-45
2024/01/11 00:33:36;;;;;;;;;;;;;;;16.64;33.56;101922.25;5072339;28;1098;-47
2024/01/11 00:36:02;;;;;;;;;;;;;;;16.13;34.37;101925.78;5074358;28;984;-45
2024/01/11 00:38:27;;;;;;;;;;;;;;;16.81;33.45;101930.22;5077835;28;1199;-49
2024/01/11 00:40:53;;;;;;;;;;;;;;;17.75;31.72;101926.69;5077578;28;1159;-48
2024/01/11 00:43:18;;;;;;;;;;;;;;;16.67;33.40;101928.31;5077497;28;1090;-46
2024/01/11 00:45:45;;;;;;;;;;;;;;;16.04;34.38;101926.28;5061600;28;1050;-46
2024/01/11 00:48:11;;;;;;;;;;;;;;;17.21;32.74;101929.81;5057752;28;989;-48
2024/01/11 00:50:37;;;;;;;;;;;;;;;17.75;31.69;101929.34;5065360;28;2354;-50
2024/01/11 00:53:03;;;;;;;;;;;;;;;16.61;33.65;101910.91;5077235;28;1901;-50
2024/01/11 00:55:29;;;;;;;;;;;;;;;16.03;34.72;101914.78;5074003;28;1095;-50
2024/01/11 00:57:54;;;;;;;;;;;;;;;17.45;32.39;101926.72;5062664;28;1023;-50
2024/01/11 01:00:20;;;;;;;;;;;;;;;17.44;32.26;101917.88;5061291;28;1043;-47
2024/01/11 01:02:45;;;;;;;;;;;;;;;16.47;33.97;101919.63;5066172;28;1024;-46
2024/01/11 01:05:11;;;;;;;;;;;;;;;15.94;34.69;101909.94;5076662;28;1071;-45
2024/01/11 01:07:37;;;;;;;;;;;;;;;17.01;33.25;101914.03;5076645;28;1031;-46
2024/01/11 01:10:03;;;;;;;;;;;;;;;17.97;31.45;101908.56;5074226;28;1196;-48
2024/01/11 01:12:28;;;;;;;;;;;;;;;16.88;33.19;101905.88;5066648;28;1981;-49
2024/01/11 01:14:55;;;;;;;;;;;;;;;16.17;34.15;101905.25;5074142;28;1184;-47
2024/01/11 01:17:21;;;;;;;;;;;;;;;16.94;33.34;101899.38;5066049;28;1112;-49
2024/01/11 01:19:47;;;;;;;;;;;;;;;17.73;31.86;101893.16;5043489;28;1845;-47
2024/01/11 01:22:13;;;;;;;;;;;;;;;16.64;33.54;101892.16;5059845;28;1191;-47
2024/01/11 01:24:38;;;;;;;;;;;;;;;16.07;34.28;101885.44;5038863;28;1131;-51
2024/01/11 01:27:04;;;;;;;;;;;;;;;17.15;32.98;101883.16;5067116;28;1140;-51
2024/01/11 01:29:29;;;;;;;;;;;;;;;17.62;31.87;101878.69;5063097;28;1145;-47
2024/01/11 01:31:55;;;;;;;;;;;;;;;16.51;33.61;101876.03;5076142;28;1914;-50
2024/01/11 01:34:21;;;;;;;;;;;;;;;16.00;34.69;101867.19;5066235;28;1044;-47
2024/01/11 01:36:46;;;;;;;;;;;;;;;17.33;32.58;101867.94;5066106;28;1210;-48
2024/01/11 01:39:12;;;;;;;;;;;;;;;17.65;31.70;101861.66;5072967;28;1166;-49
2024/01/11 01:41:38;;;;;;;;;;;;;;;16.58;33.49;101860.63;5076235;28;1119;-46
2024/01/11 01:44:04;;;;;;;;;;;;;;;16.05;34.41;101858.13;5059559;28;1084;-47
2024/01/11 01:46:29;;;;;;;;;;;;;;;16.77;33.54;101853.34;5065915;28;1040;-50
2024/01/11 01:48:55;;;;;;;;;;;;;;;17.90;31.40;101849.53;5059832;28;1096;-51
2024/01/11 01:51:21;;;;;;;;;;;;;;;16.82;33.00;101849.53;5066490;28;2514;-47
2024/01/11 01:53:46;;;;;;;;;;;;;;;16.13;34.46;101845.31;5059760;28;1059;-44
2024/01/11 01:56:12;;;;;;;;;;;;;;;16.49;34.19;101838.94;5048756;28;1192;-50
2024/01/11 01:58:37;;;;;;;;;;;;;;;17.77;31.78;101846.75;5057576;28;1099;-48
2024/01/11 02:01:03;;;;;;;;;;;;;;;16.91;32.81;101842.84;5066155;28;1102;-48
2024/01/11 02:03:28;;;;;;;;;;;;;;;16.20;34.15;101844.03;5072445;28;1034;-48
2024/01/11 02:05:54;;;;;;;;;;;;;;;16.79;33.58;101845.28;5048477;28;1123;-47
2024/01/11 02:08:20;;;;;;;;;;;;;;;17.90;31.48;101846.84;5054735;28;1140;-47
2024/01/11 02:10:46;;;;;;;;;;;;;;;16.81;32.95;101834.56;5067205;28;984;-49
2024/01/11 02:13:13;;;;;;;;;;;;;;;16.22;34.09;101828.00;5054727;28;1910;-48
2024/01/11 02:15:38;;;;;;;;;;;;;;;16.63;33.79;101834.66;5075698;28;1051;-47
2024/01/11 02:18:04;;;;;;;;;;;;;;;17.89;31.53;101833.66;5074996;28;1075;-45
2024/01/11 02:20:29;;;;;;;;;;;;;;;16.89;32.82;101832.31;5047354;28;2642;-47
2024/01/11 02:22:56;;;;;;;;;;;;;;;16.19;34.33;101838.78;5061737;28;1107;-46
2024/01/11 02:25:22;;;;;;;;;;;;;;;16.32;34.10;101831.88;5047501;28;1110;-46
2024/01/11 02:27:47;;;;;;;;;;;;;;;17.70;31.91;101829.47;5062722;28;1207;-47
2024/01/11 02:30:13;;;;;;;;;;;;;;;17.04;32.81;101819.06;5075336;28;1047;-46
2024/01/11 02:32:39;;;;;;;;;;;;;;;16.32;34.02;101828.34;5062041;28;1915;-44
2024/01/11 02:35:05;;;;;;;;;;;;;;;16.50;33.96;101827.34;5057311;28;893;-45
2024/01/11 02:37:30;;;;;;;;;;;;;;;17.76;31.72;101826.44;5057978;28;1152;-47
2024/01/11 02:39:56;;;;;;;;;;;;;;;16.79;33.06;101831.13;5066739;28;1127;-47
2024/01/11 02:42:21;;;;;;;;;;;;;;;16.13;34.59;101829.38;5072776;28;1139;-47
2024/01/11 02:44:47;;;;;;;;;;;;;;;16.94;33.13;101824.94;5070264;28;1032;-48
2024/01/11 02:47:13;;;;;;;;;;;;;;;17.93;31.41;101822.75;5066298;28;1615;-47
2024/01/11 02:49:38;;;;;;;;;;;;;;;16.75;33.27;101818.00;5064421;28;2287;-47
2024/01/11 02:52:04;;;;;;;;;;;;;;;16.11;34.20;101824.16;5059950;28;1934;-47
2024/01/11 02:54:29;;;;;;;;;;;;;;;16.43;33.81;101823.34;5059508;28;1012;-47
2024/01/11 02:56:57;;;;;;;;;;;;;;;17.68;32.01;101816.25;5072620;28;1090;-47
2024/01/11 02:59:23;;;;;;;;;;;;;;;16.79;32.90;101820.50;5069475;28;849;-48
2024/01/11 03:01:49;;;;;;;;;;;;;;;16.11;34.12;101802.91;5079358;28;1032;-48
2024/01/11 03:04:15;;;;;;;;;;;;;;;16.52;33.75;101811.31;5069787;28;1067;-48
2024/01/11 03:06:41;;;;;;;;;;;;;;;17.77;31.58;101814.00;5075359;28;1198;-47
2024/01/11 03:09:06;;;;;;;;;;;;;;;16.84;32.78;101808.66;5079399;28;1170;-49
2024/01/11 03:11:32;;;;;;;;;;;;;;;16.21;34.32;101805.06;5074225;28;1976;-47
2024/01/11 03:13:57;;;;;;;;;;;;;;;16.84;33.23;101813.13;5078981;28;1078;-49
2024/01/11 03:16:23;;;;;;;;;;;;;;;17.90;31.27;101806.09;5078697;28;1066;-47
2024/01/11 03:18:48;;;;;;;;;;;;;;;16.84;32.83;101810.47;5078987;28;1151;-48
2024/01/11 03:21:14;;;;;;;;;;;;;;;16.19;34.10;101805.16;5077224;28;2679;-51
2024/01/11 03:23:40;;;;;;;;;;;;;;;16.59;33.75;101796.78;5067646;28;883;-48
2024/01/11 03:26:12;;;;;;;;;;;;;;;17.84;31.61;101802.00;5073950;28;1126;-43
2024/01/11 03:28:37;;;;;;;;;;;;;;;16.87;32.77;101787.22;5078707;28;1118;-45
2024/01/11 03:31:03;;;;;;;;;;;;;;;16.23;33.87;101793.41;5065465;28;1910;-46
2024/01/11 03:33:28;;;;;;;;;;;;;;;16.72;33.36;101786.31;5078644;28;1127;-47
2024/01/11 03:35:54;;;;;;;;;;;;;;;17.88;31.41;101790.22;5075773;28;1016;-50
2024/01/11 03:38:19;;;;;;;;;;;;;;;16.84;32.88;101794.50;5068513;28;991;-46
2024/01/11 03:40:45;;;;;;;;;;;;;;;16.18;34.28;101787.50;5077956;28;987;-47
2024/01/11 03:43:11;;;;;;;;;;;;;;;17.09;32.79;101782.47;5069256;28;1197;-45
2024/01/11 03:45:36;;;;;;;;;;;;;;;17.72;31.48;101784.97;5074202;28;1024;-47
2024/01/11 03:48:02;;;;;;;;;;;;;;;16.59;33.39;101777.31;5065582;28;899;-49
2024/01/11 03:50:27;;;;;;;;;;;;;;;16.03;34.51;101778.59;5063043;28;2448;-46
2024/01/11 03:52:53;;;;;;;;;;;;;;;17.17;32.85;101774.03;5058626;28;1893;-46
2024/01/11 03:55:19;;;;;;;;;;;;;;;17.62;31.68;101772.25;5060968;28;1063;-45
2024/01/11 03:57:44;;;;;;;;;;;;;;;16.57;33.46;101766.78;5078490;28;992;-48
2024/01/11 04:00:10;;;;;;;;;;;;;;;16.04;34.19;101764.38;5077321;28;1015;-47
2024/01/11 04:02:35;;;;;;;;;;;;;;;17.31;32.58;101767.91;5069457;28;1043;-47
2024/01/11 04:05:01;;;;;;;;;;;;;;;17.49;31.82;101760.63;5073755;28;1168;-44
2024/01/11 04:07:27;;;;;;;;;;;;;;;16.49;33.74;101759.25;5078382;28;1003;-45
2024/01/11 04:09:52;;;;;;;;;;;;;;;16.01;34.20;101753.91;5064476;28;1084;-49
2024/01/11 04:12:18;;;;;;;;;;;;;;;17.06;32.71;101745.41;5069209;28;1963;-51
2024/01/11 04:14:43;;;;;;;;;;;;;;;17.89;31.37;101757.31;5073433;28;1155;-50
2024/01/11 04:17:09;;;;;;;;;;;;;;;16.72;33.10;101751.75;5077179;28;1191;-51
2024/01/11 04:19:34;;;;;;;;;;;;;;;16.17;34.37;101753.94;5065580;28;1871;-47
2024/01/11 04:22:00;;;;;;;;;;;;;;;16.40;33.99;101752.66;5069373;28;1047;-48
2024/01/11 04:24:26;;;;;;;;;;;;;;;17.71;31.76;101749.53;5060828;28;1228;-47
2024/01/11 04:26:51;;;;;;;;;;;;;;;16.91;32.62;101739.19;5069536;28;1163;-48
2024/01/11 04:29:18;;;;;;;;;;;;;;;16.23;34.08;101744.78;5071341;28;1134;-48
2024/01/11 04:31:43;;;;;;;;;;;;;;;16.96;32.88;101743.31;5076963;28;1979;-46
2024/01/11 04:34:09;;;;;;;;;;;;;;;17.75;31.53;101759.03;5076987;28;1176;-45
2024/01/11 04:36:37;;;;;;;;;;;;;;;16.64;33.16;101746.03;5064507;28;905;-45
2024/01/11 04:39:03;;;;;;;;;;;;;;;16.09;34.34;101751.72;5058500;28;1040;-48
2024/01/11 04:41:28;;;;;;;;;;;;;;;16.97;33.11;101747.66;5077589;28;1040;-49
2024/01/11 04:43:54;;;;;;;;;;;;;;;17.72;31.61;101747.72;5077616;28;988;-43
2024/01/11 04:46:20;;;;;;;;;;;;;;;16.58;33.23;101749.03;5077290;28;1031;-44
2024/01/11 04:48:46;;;;;;;;;;;;;;;16.02;34.52;101756.50;5075508;28;1242;-44
2024/01/11 04:51:12;;;;;;;;;;;;;;;17.30;32.52;101750.25;5077499;28;2484;-46
2024/01/11 04:53:39;;;;;;;;;;;;;;;17.98;30.08;101745.25;5058984;28;1079;-44
2024/01/11 04:56:04;;;;;;;;;;;;;;;16.72;32.76;101741.13;5057656;28;1118;-45
2024/01/11 04:58:30;;;;;;;;;;;;;;;16.07;34.29;101747.41;5076268;28;1175;-50
2024/01/11 05:00:56;;;;;;;;;;;;;;;17.33;32.17;101748.25;5064635;28;890;-42
2024/01/11 05:03:21;;;;;;;;;;;;;;;17.37;31.90;101743.59;5062616;28;1104;-47
2024/01/11 05:05:47;;;;;;;;;;;;;;;16.50;32.21;101738.84;5074978;28;1084;-57
2024/01/11 05:08:12;;;;;;;;;;;;;;;16.15;33.90;101735.44;5057223;28;1165;-50
2024/01/11 05:10:38;;;;;;;;;;;;;;;17.57;31.82;101736.22;5068646;28;995;-48
2024/01/11 05:13:04;;;;;;;;;;;;;;;17.47;31.69;101744.75;5066020;28;1914;-51
2024/01/11 05:15:29;;;;;;;;;;;;;;;16.52;33.35;101742.25;5076180;28;1115;-45
2024/01/11 05:17:56;;;;;;;;;;;;;;;15.90;34.50;101734.09;5074286;28;1031;-49
2024/01/11 05:20:21;;;;;;;;;;;;;;;17.21;32.48;101730.38;5057883;28;2552;-51
2024/01/11 05:22:47;;;;;;;;;;;;;;;18.17;30.30;101728.97;5071486;28;1063;-53
2024/01/11 05:25:12;;;;;;;;;;;;;;;16.33;33.12;101723.88;5076027;28;909;-52
2024/01/11 05:27:38;;;;;;;;;;;;;;;15.55;34.76;101723.56;5075526;28;1327;-47
2024/01/11 05:30:04;;;;;;;;;;;;;;;15.21;35.55;101728.88;5074190;28;1210;-52
2024/01/11 05:32:30;;;;;;;;;;;;;;;16.96;32.60;101723.84;5061443;28;1988;-48
2024/01/11 05:34:55;;;;;;;;;;;;;;;16.46;33.42;101721.38;5050948;28;1103;-52
2024/01/11 05:37:21;;;;;;;;;;;;;;;16.49;33.66;101722.06;5062778;28;848;-50
2024/01/11 05:39:46;;;;;;;;;;;;;;;18.09;31.05;101720.59;5076406;28;1087;-52
2024/01/11 05:42:12;;;;;;;;;;;;;;;16.26;33.93;101708.31;5061805;28;1167;-51
2024/01/11 05:44:38;;;;;;;;;;;;;;;15.63;35.20;101707.28;5064343;28;1193;-53
2024/01/11 05:47:03;;;;;;;;;;;;;;;15.36;35.90;101710.44;5076123;28;1058;-50
2024/01/11 05:49:29;;;;;;;;;;;;;;;17.52;32.02;101711.72;5064254;28;2330;-49
2024/01/11 05:51:54;;;;;;;;;;;;;;;16.49;33.26;101707.91;5070637;28;1983;-49
2024/01/11 05:54:20;;;;;;;;;;;;;;;16.68;33.48;101691.78;5076239;28;1088;-47
2024/01/11 05:56:46;;;;;;;;;;;;;;;18.05;30.85;101701.28;5066852;28;1306;-47
2024/01/11 05:59:11;;;;;;;;;;;;;;;16.24;33.84;101694.25;5076321;28;901;-46
2024/01/11 06:01:40;;;;;;;;;;;;;;;16.02;34.49;101699.88;5074591;28;1047;-48
2024/01/11 06:04:06;;;;;;;;;;;;;;;18.02;31.41;101698.00;5075374;28;1028;-48
2024/01/11 06:06:31;;;;;;;;;;;;;;;16.35;33.91;101690.97;5071926;28;1234;-49
2024/01/11 06:08:57;;;;;;;;;;;;;;;15.70;35.24;101684.75;5066899;28;1075;-47
2024/01/11 06:11:22;;;;;;;;;;;;;;;16.25;34.31;101684.47;5075681;28;1972;-49
2024/01/11 06:13:48;;;;;;;;;;;;;;;17.37;32.04;101690.41;5057668;28;905;-45
2024/01/11 06:16:14;;;;;;;;;;;;;;;15.89;34.87;101695.25;5061589;28;1110;-45
2024/01/11 06:18:39;;;;;;;;;;;;;;;15.37;35.90;101693.56;5072426;28;1242;-47
2024/01/11 06:21:05;;;;;;;;;;;;;;;16.90;33.28;101695.81;5074364;28;2527;-45
2024/01/11 06:23:31;;;;;;;;;;;;;;;17.60;31.77;101694.31;5066180;28;1155;-48
2024/01/11 06:25:57;;;;;;;;;;;;;;;15.93;34.50;101687.97;5070288;28;1040;-43
2024/01/11 06:28:22;;;;;;;;;;;;;;;17.17;33.17;101694.28;5055850;28;936;-43
2024/01/11 06:30:48;;;;;;;;;;;;;;;16.58;33.41;101688.78;5057142;28;1055;-43
2024/01/11 06:33:13;;;;;;;;;;;;;;;16.05;34.78;101686.44;5074587;28;1978;-45
2024/01/11 06:35:39;;;;;;;;;;;;;;;18.02;31.52;101695.31;5071384;28;1134;-45
2024/01/11 06:38:05;;;;;;;;;;;;;;;16.28;34.38;101689.63;5066115;28;944;-42
2024/01/11 06:40:30;;;;;;;;;;;;;;;16.23;34.52;101689.03;5058478;28;1214;-45
2024/01/11 06:42:56;;;;;;;;;;;;;;;18.00;31.44;101690.06;5063233;28;991;-49
2024/01/11 06:45:22;;;;;;;;;;;;;;;16.25;34.39;101685.31;5071712;28;968;-43
2024/01/11 06:47:48;;;;;;;;;;;;;;;17.15;32.99;101696.19;5067710;28;1043;-48
2024/01/11 06:50:14;;;;;;;;;;;;;;;18.07;31.02;101688.72;5074664;28;1836;-43
2024/01/11 06:52:40;;;;;;;;;;;;;;;16.38;33.70;101692.63;5067798;28;1967;-53
2024/01/11 06:55:05;;;;;;;;;;;;;;;16.25;34.32;101695.94;5043300;28;1149;-50
2024/01/11 06:57:31;;;;;;;;;;;;;;;18.13;31.25;101687.53;5055542;28;1051;-47
2024/01/11 06:59:57;;;;;;;;;;;;;;;16.37;33.78;101690.88;5056306;28;1018;-51
2024/01/11 07:02:22;;;;;;;;;;;;;;;16.53;34.33;101685.56;5060536;28;1221;-48
2024/01/11 07:04:48;;;;;;;;;;;;;;;18.29;31.07;101686.50;5055746;28;1095;-45
2024/01/11 07:07:13;;;;;;;;;;;;;;;16.69;33.17;101682.84;5055003;28;1039;-46
2024/01/11 07:09:39;;;;;;;;;;;;;;;16.26;34.45;101678.22;5055612;28;1040;-45
2024/01/11 07:12:05;;;;;;;;;;;;;;;17.91;31.47;101675.56;5049656;28;1977;-46
2024/01/11 07:14:30;;;;;;;;;;;;;;;16.39;33.98;101673.94;5054917;28;1015;-46
2024/01/11 07:16:56;;;;;;;;;;;;;;;15.88;35.15;101674.09;5049191;28;1174;-44
2024/01/11 07:19:22;;;;;;;;;;;;;;;16.88;33.60;101679.13;5067734;28;1872;-45
2024/01/11 07:21:47;;;;;;;;;;;;;;;17.60;31.98;101678.34;5072798;28;987;-45
2024/01/11 07:24:13;;;;;;;;;;;;;;;16.21;34.51;101672.31;5074410;28;1329;-44
2024/01/11 07:26:39;;;;;;;;;;;;;;;16.57;34.14;101680.91;5066875;28;1297;-46
2024/01/11 07:29:04;;;;;;;;;;;;;;;17.29;32.46;101676.72;5073458;28;1032;-48
2024/01/11 07:31:30;;;;;;;;;;;;;;;16.06;34.49;101672.25;5077779;28;1897;-44
2024/01/11 07:33:56;;;;;;;;;;;;;;;15.63;35.45;101675.44;5078346;28;1031;-48
2024/01/11 07:36:21;;;;;;;;;;;;;;;17.79;31.84;101673.66;5060479;28;1159;-46
2024/01/11 07:38:47;;;;;;;;;;;;;;;16.20;34.37;101675.94;5077561;28;1282;-45
2024/01/11 07:41:13;;;;;;;;;;;;;;;17.35;32.68;101663.06;5076453;28;1047;-48
2024/01/11 07:43:40;;;;;;;;;;;;;;;18.01;31.30;101666.97;5063062;28;929;-42
2024/01/11 07:46:07;;;;;;;;;;;;;;;16.37;33.98;101662.53;5075421;28;1099;-44
2024/01/11 07:48:32;;;;;;;;;;;;;;;15.78;35.25;101661.31;5068404;28;1079;-49
2024/01/11 07:50:59;;;;;;;;;;;;;;;17.61;32.22;101660.59;5067898;28;2369;-46
2024/01/11 07:53:24;;;;;;;;;;;;;;;17.18;32.75;101657.00;5072030;28;1917;-46
2024/01/11 07:55:50;;;;;;;;;;;;;;;16.15;34.57;101653.13;5058549;28;1055;-46
2024/01/11 07:58:16;;;;;;;;;;;;;;;15.63;35.63;101648.91;5058885;28;1068;-45
2024/01/11 08:00:42;;;;;;;;;;;;;;;17.53;32.27;101647.78;5066140;28;1035;-49
2024/01/11 08:03:08;;;;;;;;;;;;;;;16.87;32.79;101640.19;5064068;28;1187;-46
2024/01/11 08:05:34;;;;;;;;;;;;;;;15.87;34.82;101637.88;5066522;28;1140;-50
2024/01/11 08:08:01;;;;;;;;;;;;;;;15.54;35.77;101645.81;5063780;28;1039;-49
2024/01/11 08:10:27;;;;;;;;;;;;;;;16.99;33.33;101644.78;5066050;28;1119;-50
2024/01/11 08:12:53;;;;;;;;;;;;;;;16.49;33.76;101645.03;5077287;28;1914;-46
2024/01/11 08:15:18;;;;;;;;;;;;;;;16.06;34.87;101635.09;5078333;28;1162;-44
2024/01/11 08:17:44;;;;;;;;;;;;;;;17.97;31.37;101629.03;5072505;28;1338;-46
2024/01/11 08:20:11;;;;;;;;;;;;;;;16.24;33.97;101638.50;5069891;28;2656;-44
2024/01/11 08:22:40;;;;;;;;;;;;;;;17.01;33.20;101626.06;5070838;28;1326;-46
2024/01/11 08:25:07;;;;;;;;;;;;;;;17.47;32.01;101622.41;5073760;28;1544;-50
2024/01/11 08:27:33;;;;;;;;;;;;;;;16.11;34.53;101617.09;5067880;28;1098;-45
2024/01/11 08:30:00;;;;;;;;;;;;;;;16.92;33.53;101616.84;5076882;28;1281;-50
2024/01/11 08:32:26;;;;;;;;;;;;;;;17.42;31.98;101618.31;5057158;28;1914;-47
2024/01/11 08:34:51;;;;;;;;;;;;;;;16.12;34.13;101616.16;5073341;28;1481;-50
2024/01/11 08:37:17;;;;;;;;;;;;;;;15.63;35.06;101615.28;5076742;28;1106;-47
2024/01/11 08:39:42;;;;;;;;;;;;;;;16.53;34.06;101612.03;5076625;28;1090;-46
2024/01/11 08:42:08;;;;;;;;;;;;;;;18.16;30.98;101602.09;5077195;28;1122;-45
2024/01/11 08:44:33;;;;;;;;;;;;;;;16.46;33.86;101608.03;5068958;28;1124;-48
2024/01/11 08:46:59;;;;;;;;;;;;;;;15.70;34.89;101586.59;5069813;28;1035;-46
2024/01/11 08:49:25;;;;;;;;;;;;;;;17.90;31.43;101593.97;5061865;28;1778;-50
2024/01/11 08:51:51;;;;;;;;;;;;;;;16.38;33.80;101583.75;5065027;28;1913;-48
2024/01/11 08:54:16;;;;;;;;;;;;;;;15.77;35.02;101574.72;5065148;28;1064;-50
2024/01/11 08:56:42;;;;;;;;;;;;;;;17.70;31.95;101572.19;5066326;28;1107;-47
2024/01/11 08:59:11;;;;;;;;;;;;;;;16.80;33.16;101567.13;5067548;28;1215;-48
2024/01/11 09:01:37;;;;;;;;;;;;;;;15.86;35.10;101560.09;5076397;28;1038;-52
2024/01/11 09:04:03;;;;;;;;;;;;;;;16.25;34.52;101552.56;5076713;28;1008;-48
2024/01/11 09:06:29;;;;;;;;;;;;;;;18.06;31.35;101550.38;5071204;28;1122;-50
2024/01/11 09:08:54;;;;;;;;;;;;;;;16.29;34.25;101547.94;5076754;28;1039;-53
2024/01/11 09:11:20;;;;;;;;;;;;;;;15.61;35.58;101534.97;5066769;28;1993;-52
2024/01/11 09:13:45;;;;;;;;;;;;;;;17.71;31.94;101531.31;5060352;28;1016;-48
2024/01/11 09:16:14;;;;;;;;;;;;;;;16.35;34.32;101534.31;5066521;28;1186;-46
2024/01/11 09:18:39;;;;;;;;;;;;;;;15.72;35.58;101520.19;5064776;28;1036;-49
2024/01/11 09:21:05;;;;;;;;;;;;;;;15.35;36.20;101516.03;5074045;28;2677;-45
2024/01/11 09:23:31;;;;;;;;;;;;;;;16.22;34.49;101520.91;5064513;28;1126;-42
2024/01/11 09:25:56;;;;;;;;;;;;;;;17.94;31.55;101505.00;5069492;28;1166;-46
2024/01/11 09:28:22;;;;;;;;;;;;;;;16.53;33.75;101500.47;5076033;28;1091;-50
2024/01/11 09:30:47;;;;;;;;;;;;;;;15.74;35.03;101495.31;5076037;28;1145;-46
2024/01/11 09:33:13;;;;;;;;;;;;;;;17.71;31.84;101487.88;5063944;28;1980;-45
2024/01/11 09:35:39;;;;;;;;;;;;;;;16.40;33.65;101479.13;5076855;28;1025;-44
2024/01/11 09:38:05;;;;;;;;;;;;;;;15.67;35.00;101473.59;5068960;28;1076;-44
2024/01/11 09:40:31;;;;;;;;;;;;;;;16.61;33.92;101464.63;5069556;28;1159;-42
2024/01/11 09:42:57;;;;;;;;;;;;;;;16.32;33.71;101467.25;5051974;28;1281;-49
2024/01/11 09:45:22;;;;;;;;;;;;;;;15.57;35.13;101455.63;5063893;28;1039;-48
2024/01/11 09:47:50;;;;;;;;;;;;;;;15.21;36.06;101449.69;5070596;28;1206;-46
2024/01/11 09:50:17;;;;;;;;;;;;;;;17.01;33.32;101453.31;5056978;28;2624;-45
2024/01/11 09:52:47;;;;;;;;;;;;;;;17.35;31.97;101434.34;5062659;28;1906;-48
2024/01/11 09:55:13;;;;;;;;;;;;;;;15.81;34.92;101441.91;5067626;28;1032;-48
2024/01/11 09:57:40;;;;;;;;;;;;;;;16.94;33.33;101436.88;5070739;28;1088;-45
2024/01/11 10:00:07;;;;;;;;;;;;;;;16.66;33.51;101422.69;5054748;28;1012;-43
2024/01/11 10:02:33;;;;;;;;;;;;;;;16.51;34.04;101433.34;5048898;28;1136;-43
2024/01/11 10:04:58;;;;;;;;;;;;;;;18.28;31.11;101424.66;5068241;28;1325;-49
2024/01/11 10:07:24;;;;;;;;;;;;;;;16.38;34.09;101416.44;5057173;28;1341;-45
2024/01/11 10:09:50;;;;;;;;;;;;;;;15.70;35.08;101413.34;5066426;28;1337;-45
2024/01/11 10:12:17;;;;;;;;;;;;;;;15.48;35.65;101412.78;5054543;28;1907;-46
2024/01/11 10:14:42;;;;;;;;;;;;;;;17.20;32.70;101399.81;5065295;28;1071;-43
2024/01/11 10:17:08;;;;;;;;;;;;;;;15.80;34.89;101393.28;5061752;28;1162;-44
2024/01/11 10:19:34;;;;;;;;;;;;;;;16.45;34.46;101393.84;5074176;28;2348;-41
2024/01/11 10:21:59;;;;;;;;;;;;;;;18.06;31.42;101382.66;5075524;28;1083;-42
2024/01/11 10:24:28;;;;;;;;;;;;;;;16.27;34.30;101377.25;5075856;28;1205;-45
2024/01/11 10:26:57;;;;;;;;;;;;;;;16.17;34.77;101376.97;5064649;28;912;-42
2024/01/11 10:29:23;;;;;;;;;;;;;;;17.56;31.99;101365.56;5069158;28;1128;-45
2024/01/11 10:31:50;;;;;;;;;;;;;;;16.04;34.54;101363.59;5048481;28;1974;-42
2024/01/11 10:34:16;;;;;;;;;;;;;;;15.48;35.78;101351.81;5072011;28;1032;-44
2024/01/11 10:36:41;;;;;;;;;;;;;;;17.63;32.40;101350.06;5075859;28;1019;-44
2024/01/11 10:39:07;;;;;;;;;;;;;;;16.20;34.40;101341.44;5049077;28;1106;-46
2024/01/11 10:41:40;;;;;;;;;;;;;;;15.71;35.76;101338.13;5057356;28;1104;-44
2024/01/11 10:44:07;;;;;;;;;;;;;;;17.89;31.99;101326.09;5057492;28;1040;-44
2024/01/11 10:46:33;;;;;;;;;;;;;;;16.30;34.51;101321.31;5057407;28;1017;-44
2024/01/11 10:48:58;;;;;;;;;;;;;;;15.54;35.75;101326.72;5057973;28;1147;-43
2024/01/11 10:51:25;;;;;;;;;;;;;;;17.00;33.66;101316.88;5048632;28;2526;-42
2024/01/11 10:53:51;;;;;;;;;;;;;;;17.02;32.91;101309.66;5052775;28;1124;-44
2024/01/11 10:56:16;;;;;;;;;;;;;;;15.83;35.39;101305.53;5037679;28;1135;-42
2024/01/11 10:58:42;;;;;;;;;;;;;;;16.85;33.75;101308.09;5073701;28;1127;-45
2024/01/11 11:01:08;;;;;;;;;;;;;;;17.30;32.83;101293.69;5073353;28;1118;-42
2024/01/11 11:03:34;;;;;;;;;;;;;;;16.01;34.86;101289.50;5074069;28;1122;-39
2024/01/11 11:06:00;;;;;;;;;;;;;;;17.75;32.09;101281.81;5079217;28;1313;-40
2024/01/11 11:08:26;;;;;;;;;;;;;;;16.64;33.71;101273.16;5078801;28;1051;-45
2024/01/11 11:10:57;;;;;;;;;;;;;;;15.83;35.34;101267.56;5048894;28;1116;-46
2024/01/11 11:13:22;;;;;;;;;;;;;;;15.54;35.66;101273.69;5075487;28;1972;-43
2024/01/11 11:15:48;;;;;;;;;;;;;;;16.73;34.03;101266.41;5076125;28;894;-48
2024/01/11 11:18:14;;;;;;;;;;;;;;;16.97;33.27;101266.59;5069358;28;1180;-49
2024/01/11 11:20:42;;;;;;;;;;;;;;;15.74;35.11;101253.06;5075721;28;2530;-43
2024/01/11 11:23:09;;;;;;;;;;;;;;;16.16;34.83;101248.69;5076864;28;1225;-46
2024/01/11 11:25:35;;;;;;;;;;;;;;;18.02;31.57;101243.56;5078762;28;1063;-47
2024/01/11 11:28:03;;;;;;;;;;;;;;;16.33;34.23;101241.47;5072177;28;1332;-43
2024/01/11 11:30:30;;;;;;;;;;;;;;;15.67;35.49;101244.63;5076559;28;1306;-46
2024/01/11 11:32:56;;;;;;;;;;;;;;;17.71;32.01;101238.63;5078854;28;1977;-41
2024/01/11 11:35:24;;;;;;;;;;;;;;;16.50;33.88;101221.78;5075993;28;1270;-45
2024/01/11 11:37:59;;;;;;;;;;;;;;;15.74;35.10;101223.88;5071934;28;1030;-40
2024/01/11 11:40:40;;;;;;;;;;;;;;;17.73;32.05;101226.03;5041524;28;1063;-43
2024/01/11 11:43:06;;;;;;;;;;;;;;;16.02;34.80;101222.19;5071109;28;1383;-42
2024/01/11 11:45:32;;;;;;;;;;;;;;;15.58;35.63;101211.56;5072634;28;993;-42
2024/01/11 11:47:57;;;;;;;;;;;;;;;17.70;31.93;101207.63;5069369;28;2278;-44
2024/01/11 11:50:25;;;;;;;;;;;;;;;16.53;33.44;101199.50;5077401;28;1183;-47
2024/01/11 11:52:56;;;;;;;;;;;;;;;15.76;35.26;101195.47;5071481;28;1914;-45
2024/01/11 11:55:22;;;;;;;;;;;;;;;16.23;34.46;101181.97;5060235;28;1119;-43
2024/01/11 11:57:47;;;;;;;;;;;;;;;16.79;33.22;101185.44;5070821;28;1145;-45
2024/01/11 12:00:14;;;;;;;;;;;;;;;15.66;35.21;101184.59;5072725;28;1024;-43
2024/01/11 12:02:40;;;;;;;;;;;;;;;15.30;35.81;101176.13;5053322;28;1227;-44
2024/01/11 12:05:06;;;;;;;;;;;;;;;17.48;32.37;101184.38;5073262;28;1063;-43
2024/01/11 12:07:31;;;;;;;;;;;;;;;16.23;34.01;101184.63;5078532;28;1146;-48
2024/01/11 12:09:57;;;;;;;;;;;;;;;15.63;35.52;101175.00;5078671;28;1087;-46
2024/01/11 12:12:23;;;;;;;;;;;;;;;17.77;31.87;101172.63;5056848;28;1910;-43
2024/01/11 12:14:49;;;;;;;;;;;;;;;16.61;33.36;101172.44;5077163;28;901;-44
2024/01/11 12:17:15;;;;;;;;;;;;;;;15.70;35.01;101162.22;5077963;28;1095;-56
2024/01/11 12:19:40;;;;;;;;;;;;;;;16.27;34.42;101155.13;5077321;28;1396;-58
2024/01/11 12:22:06;;;;;;;;;;;;;;;18.08;31.22;101151.78;5075758;28;1509;-58
2024/01/11 12:24:33;;;;;;;;;;;;;;;16.25;34.05;101145.53;5059153;28;1417;-57
2024/01/11 12:26:59;;;;;;;;;;;;;;;15.66;35.22;101137.69;5067954;28;1295;-55
2024/01/11 12:29:24;;;;;;;;;;;;;;;17.14;32.95;101137.03;5068759;28;1103;-58
2024/01/11 12:31:50;;;;;;;;;;;;;;;17.17;32.30;101133.31;5076766;28;1894;-57
2024/01/11 12:34:16;;;;;;;;;;;;;;;15.91;34.68;101136.13;5076883;28;1320;-59
2024/01/11 12:36:42;;;;;;;;;;;;;;;15.44;35.64;101124.94;5059711;28;1242;-57
2024/01/11 12:39:09;;;;;;;;;;;;;;;17.50;32.19;101123.91;5073205;28;1280;-52
2024/01/11 12:41:35;;;;;;;;;;;;;;;16.69;32.97;101117.00;5076044;28;1336;-57